Time;durP1;ratioP1;P1;durP2;ratioP2;P2;SDS_P1;SDS_P2;PMS_P1;PMS_P2;Temp;Humidity;BMP_temperature;BMP_pressure;BME280_temperature;BME280_humidity;BME280_pressure;Samples;Min_cycle;Max_cycle;Signal;HPM_P1;HPM_P2
2021/05/20 00:00:16;;;;;;;2.38;1.90;;;;;;;;;;5062988;28;20025;-84
2021/05/20 00:02:43;;;;;;;2.08;1.88;;;;;;;;;;5065104;28;20037;-84
2021/05/20 00:05:10;;;;;;;2.95;1.70;;;;;;;;;;5061778;28;20029;-84
2021/05/20 00:07:36;;;;;;;2.15;1.40;;;;;;;;;;5059661;28;20112;-84
2021/05/20 00:10:03;;;;;;;2.60;1.80;;;;;;;;;;5065905;28;20055;-84
2021/05/20 00:12:29;;;;;;;2.08;1.73;;;;;;;;;;5051717;28;20448;-84
2021/05/20 00:14:55;;;;;;;2.95;1.83;;;;;;;;;;5067094;28;20104;-84
2021/05/20 00:17:20;;;;;;;5.28;2.08;;;;;;;;;;5055221;28;20078;-84
2021/05/20 00:19:46;;;;;;;3.03;1.83;;;;;;;;;;5061739;28;20052;-84
2021/05/20 00:22:12;;;;;;;2.47;1.80;;;;;;;;;;5052721;28;20071;-84
2021/05/20 00:24:38;;;;;;;7.00;2.67;;;;;;;;;;5060443;28;20053;-84
2021/05/20 00:27:05;;;;;;;2.38;1.52;;;;;;;;;;5058293;28;20103;-84
2021/05/20 00:29:30;;;;;;;2.67;1.70;;;;;;;;;;5029937;28;20029;-84
2021/05/20 00:31:56;;;;;;;2.10;1.70;;;;;;;;;;5034841;28;20464;-84
2021/05/20 00:34:22;;;;;;;2.38;1.70;;;;;;;;;;5022906;28;20132;-84
2021/05/20 00:36:48;;;;;;;2.45;1.70;;;;;;;;;;5036753;28;20025;-84
2021/05/20 00:39:14;;;;;;;2.00;1.80;;;;;;;;;;5037568;28;20029;-84
2021/05/20 00:41:40;;;;;;;4.63;2.17;;;;;;;;;;5028058;28;20032;-84
2021/05/20 00:44:06;;;;;;;3.17;2.05;;;;;;;;;;5026937;28;20508;-84
2021/05/20 00:46:32;;;;;;;6.53;1.73;;;;;;;;;;5031204;28;20124;-84
2021/05/20 00:48:59;;;;;;;3.05;2.00;;;;;;;;;;5026424;28;20028;-84
2021/05/20 00:51:25;;;;;;;2.65;2.00;;;;;;;;;;5055166;28;20025;-84
2021/05/20 00:53:51;;;;;;;2.15;1.67;;;;;;;;;;5037210;28;20047;-84
2021/05/20 00:56:21;;;;;;;2.22;1.92;;;;;;;;;;5022692;28;20021;-84
2021/05/20 00:58:47;;;;;;;2.63;1.75;;;;;;;;;;5043684;28;20021;-84
2021/05/20 01:01:14;;;;;;;4.40;2.17;;;;;;;;;;5033787;28;20029;-86
2021/05/20 01:03:40;;;;;;;1.98;1.60;;;;;;;;;;5031563;28;20366;-86
2021/05/20 01:06:07;;;;;;;3.03;2.00;;;;;;;;;;5020502;28;20037;-86
2021/05/20 01:08:33;;;;;;;2.38;1.90;;;;;;;;;;5027719;28;20135;-86
2021/05/20 01:11:00;;;;;;;3.38;1.80;;;;;;;;;;5037128;28;20481;-86
2021/05/20 01:13:26;;;;;;;3.60;1.90;;;;;;;;;;5033862;28;20032;-86
2021/05/20 01:15:52;;;;;;;3.38;1.90;;;;;;;;;;5042193;28;20473;-86
2021/05/20 01:18:18;;;;;;;2.55;1.60;;;;;;;;;;5022287;28;20021;-86
2021/05/20 01:20:44;;;;;;;2.95;1.95;;;;;;;;;;5021479;28;20025;-86
2021/05/20 01:23:14;;;;;;;4.55;1.90;;;;;;;;;;5054471;28;20112;-86
2021/05/20 01:25:41;;;;;;;1.95;1.70;;;;;;;;;;5029747;28;20353;-86
2021/05/20 01:28:09;;;;;;;5.35;1.90;;;;;;;;;;5054264;28;20059;-86
2021/05/20 01:30:36;;;;;;;2.50;1.30;;;;;;;;;;5067896;28;20476;-86
2021/05/20 01:33:02;;;;;;;3.15;1.70;;;;;;;;;;5062394;28;20165;-86
2021/05/20 01:35:28;;;;;;;4.43;1.33;;;;;;;;;;5070307;28;20488;-86
2021/05/20 01:40:52;;;;;;;1.85;1.63;;;;;;;;;;5073577;28;20126;-86
2021/05/20 01:43:18;;;;;;;2.97;1.70;;;;;;;;;;5058795;28;20148;-86
2021/05/20 01:45:49;;;;;;;2.47;1.65;;;;;;;;;;5063673;28;20159;-86
2021/05/20 01:48:15;;;;;;;3.40;2.47;;;;;;;;;;5056300;28;20527;-86
2021/05/20 01:50:41;;;;;;;2.47;1.65;;;;;;;;;;5074365;28;20036;-86
2021/05/20 01:53:07;;;;;;;1.70;1.35;;;;;;;;;;5063626;28;20131;-86
2021/05/20 01:55:33;;;;;;;2.88;1.77;;;;;;;;;;5071116;28;20032;-86
2021/05/20 01:57:59;;;;;;;1.60;1.50;;;;;;;;;;5072430;28;20044;-86
2021/05/20 02:00:25;;;;;;;2.10;1.63;;;;;;;;;;5063594;28;20063;-86
2021/05/20 02:02:51;;;;;;;1.80;1.45;;;;;;;;;;5066390;28;20027;-85
2021/05/20 02:05:17;;;;;;;2.40;1.60;;;;;;;;;;5056190;28;20033;-85
2021/05/20 02:07:43;;;;;;;4.40;2.03;;;;;;;;;;5067889;28;20250;-85
2021/05/20 02:10:09;;;;;;;3.13;1.85;;;;;;;;;;5063248;28;20078;-85
2021/05/20 02:12:35;;;;;;;4.95;1.73;;;;;;;;;;5058749;28;20036;-85
2021/05/20 02:15:01;;;;;;;4.57;1.38;;;;;;;;;;5068335;28;20021;-85
2021/05/20 02:17:27;;;;;;;3.08;1.92;;;;;;;;;;5057083;28;20017;-87
2021/05/20 02:19:53;;;;;;;4.50;1.77;;;;;;;;;;5061425;28;20028;-85
2021/05/20 02:22:19;;;;;;;2.30;1.83;;;;;;;;;;5068625;28;20029;-85
2021/05/20 02:24:45;;;;;;;2.83;1.90;;;;;;;;;;5071091;28;20032;-87
2021/05/20 02:27:11;;;;;;;1.88;1.67;;;;;;;;;;5069155;28;20095;-85
2021/05/20 02:29:37;;;;;;;2.25;1.60;;;;;;;;;;5035044;28;20039;-85
2021/05/20 02:32:03;;;;;;;2.33;1.80;;;;;;;;;;5034624;28;20435;-85
2021/05/20 02:34:29;;;;;;;4.22;1.80;;;;;;;;;;5021120;28;20408;-87
2021/05/20 02:36:55;;;;;;;2.97;1.67;;;;;;;;;;5022038;28;20021;-85
2021/05/20 02:39:21;;;;;;;2.67;2.00;;;;;;;;;;5016305;28;20493;-85
2021/05/20 02:41:48;;;;;;;1.60;1.48;;;;;;;;;;5024515;28;20033;-85
2021/05/20 02:44:14;;;;;;;2.13;1.92;;;;;;;;;;5033452;28;20110;-88
2021/05/20 02:46:40;;;;;;;2.53;1.85;;;;;;;;;;5032490;28;20037;-85
2021/05/20 02:49:06;;;;;;;4.40;1.60;;;;;;;;;;5027092;28;20025;-85
2021/05/20 02:51:32;;;;;;;3.40;2.00;;;;;;;;;;5051159;28;20037;-85
2021/05/20 02:53:58;;;;;;;2.85;2.15;;;;;;;;;;5033163;28;20068;-85
2021/05/20 02:56:24;;;;;;;3.75;1.85;;;;;;;;;;5030694;28;20028;-85
2021/05/20 02:58:50;;;;;;;3.28;2.00;;;;;;;;;;5049314;28;20017;-85
2021/05/20 03:01:17;;;;;;;2.75;2.50;;;;;;;;;;5029173;28;20024;-85
2021/05/20 03:03:43;;;;;;;3.97;1.90;;;;;;;;;;5031824;28;20025;-85
2021/05/20 03:06:09;;;;;;;2.45;1.98;;;;;;;;;;5020046;28;20079;-85
2021/05/20 03:08:35;;;;;;;3.30;1.70;;;;;;;;;;5042677;28;20069;-85
2021/05/20 03:11:01;;;;;;;3.28;1.95;;;;;;;;;;5018215;28;20029;-85
2021/05/20 03:13:27;;;;;;;4.45;1.98;;;;;;;;;;5049082;28;20060;-85
2021/05/20 03:15:53;;;;;;;2.65;2.13;;;;;;;;;;5030069;28;20017;-85
2021/05/20 03:18:19;;;;;;;2.28;2.08;;;;;;;;;;5033697;28;20029;-85
2021/05/20 03:20:45;;;;;;;3.20;2.45;;;;;;;;;;5018083;28;20112;-85
2021/05/20 03:23:11;;;;;;;3.13;2.30;;;;;;;;;;5043589;28;20017;-85
2021/05/20 03:25:37;;;;;;;3.63;2.40;;;;;;;;;;5047069;28;20025;-85
2021/05/20 03:28:03;;;;;;;3.72;2.33;;;;;;;;;;5040573;28;20044;-85
2021/05/20 03:30:29;;;;;;;4.90;2.97;;;;;;;;;;5069908;28;20032;-85
2021/05/20 03:32:55;;;;;;;3.75;2.50;;;;;;;;;;5057674;28;20123;-85
2021/05/20 03:35:21;;;;;;;3.30;2.80;;;;;;;;;;5059031;28;20040;-85
2021/05/20 03:37:47;;;;;;;3.33;2.60;;;;;;;;;;5061560;28;20115;-85
2021/05/20 03:40:13;;;;;;;3.38;2.30;;;;;;;;;;5055131;28;20032;-85
2021/05/20 03:42:40;;;;;;;3.13;2.53;;;;;;;;;;5063645;28;20043;-85
2021/05/20 03:45:06;;;;;;;4.18;2.40;;;;;;;;;;5064480;28;20025;-85
2021/05/20 03:47:32;;;;;;;4.28;3.00;;;;;;;;;;5070134;28;20404;-85
2021/05/20 03:49:58;;;;;;;3.30;2.58;;;;;;;;;;5066070;28;20111;-85
2021/05/20 03:52:24;;;;;;;4.82;3.05;;;;;;;;;;5064633;28;20025;-85
2021/05/20 03:54:50;;;;;;;3.90;2.58;;;;;;;;;;5070419;28;20067;-85
2021/05/20 03:57:16;;;;;;;2.75;2.38;;;;;;;;;;5070857;28;20384;-85
2021/05/20 03:59:42;;;;;;;3.60;2.85;;;;;;;;;;5065228;28;20025;-84
2021/05/20 04:02:08;;;;;;;4.70;2.75;;;;;;;;;;5051280;28;20110;-85
2021/05/20 04:04:35;;;;;;;3.10;2.80;;;;;;;;;;5068041;28;20468;-85
2021/05/20 04:07:01;;;;;;;3.78;2.85;;;;;;;;;;5070361;28;20070;-85
2021/05/20 04:09:27;;;;;;;4.05;2.75;;;;;;;;;;5071810;28;20121;-85
2021/05/20 04:11:53;;;;;;;4.97;2.97;;;;;;;;;;5054575;28;20166;-85
2021/05/20 04:14:19;;;;;;;4.20;2.75;;;;;;;;;;5069579;28;20063;-85
2021/05/20 04:16:45;;;;;;;4.82;3.40;;;;;;;;;;5054697;28;20496;-85
2021/05/20 04:19:13;;;;;;;3.53;2.92;;;;;;;;;;5061865;28;20009;-85
2021/05/20 04:21:39;;;;;;;3.35;2.58;;;;;;;;;;5068038;28;20013;-85
2021/05/20 04:24:05;;;;;;;6.25;3.47;;;;;;;;;;5061153;28;20027;-85
2021/05/20 04:26:31;;;;;;;7.25;3.42;;;;;;;;;;5067136;28;20115;-85
2021/05/20 04:28:57;;;;;;;3.47;2.90;;;;;;;;;;5070939;28;20186;-85
2021/05/20 04:31:23;;;;;;;4.88;2.78;;;;;;;;;;5074570;28;20036;-85
2021/05/20 04:33:49;;;;;;;5.55;3.42;;;;;;;;;;5064468;28;20052;-86
2021/05/20 04:36:15;;;;;;;4.90;3.28;;;;;;;;;;5055097;28;20432;-87
2021/05/20 04:38:43;;;;;;;3.70;3.00;;;;;;;;;;5065783;28;20341;-86
2021/05/20 04:41:09;;;;;;;5.13;3.53;;;;;;;;;;5074348;28;20059;-83
2021/05/20 04:43:35;;;;;;;5.28;3.67;;;;;;;;;;5063592;28;20029;-84
2021/05/20 04:46:01;;;;;;;4.70;3.40;;;;;;;;;;5069993;28;20032;-86
2021/05/20 04:48:27;;;;;;;7.90;4.45;;;;;;;;;;5075979;28;20021;-86
2021/05/20 04:50:55;;;;;;;7.88;4.03;;;;;;;;;;5075296;28;20025;-87
2021/05/20 04:53:23;;;;;;;5.15;3.40;;;;;;;;;;5059557;28;20021;-86
2021/05/20 04:55:49;;;;;;;5.63;3.35;;;;;;;;;;5061357;28;20025;-85
2021/05/20 04:58:15;;;;;;;4.93;3.55;;;;;;;;;;5058336;28;20025;-85
2021/05/20 05:00:41;;;;;;;5.68;4.05;;;;;;;;;;5074522;28;20108;-88
2021/05/20 05:03:07;;;;;;;6.78;4.10;;;;;;;;;;5063634;28;20050;-86
2021/05/20 05:05:33;;;;;;;5.15;3.55;;;;;;;;;;5056026;28;20033;-86
2021/05/20 05:07:59;;;;;;;5.75;3.72;;;;;;;;;;5070265;28;20033;-86
2021/05/20 05:10:25;;;;;;;5.45;3.40;;;;;;;;;;5075378;28;20032;-85
2021/05/20 05:12:51;;;;;;;5.63;4.07;;;;;;;;;;5071276;28;20032;-85
2021/05/20 05:15:17;;;;;;;4.75;3.70;;;;;;;;;;5063791;28;20079;-84
2021/05/20 05:17:43;;;;;;;7.65;3.40;;;;;;;;;;5071349;28;20028;-86
2021/05/20 05:20:09;;;;;;;4.75;4.05;;;;;;;;;;5071840;28;20441;-86
2021/05/20 05:22:36;;;;;;;5.75;4.15;;;;;;;;;;5061495;28;20333;-85
2021/05/20 05:25:02;;;;;;;5.40;3.47;;;;;;;;;;5068771;28;20450;-86
2021/05/20 05:27:28;;;;;;;7.63;4.20;;;;;;;;;;5062434;28;20553;-86
2021/05/20 05:29:54;;;;;;;8.07;4.45;;;;;;;;;;5065645;28;20025;-88
2021/05/20 05:32:23;;;;;;;5.35;4.25;;;;;;;;;;5075643;28;20032;-89
2021/05/20 05:34:49;;;;;;;4.75;3.80;;;;;;;;;;5074231;28;20035;-87
2021/05/20 05:37:15;;;;;;;6.50;4.78;;;;;;;;;;5064067;28;20016;-88
2021/05/20 05:39:42;;;;;;;4.72;3.97;;;;;;;;;;5067947;28;20451;-88
2021/05/20 05:42:08;;;;;;;7.47;4.85;;;;;;;;;;5068791;28;20051;-86
2021/05/20 05:44:34;;;;;;;5.85;4.68;;;;;;;;;;5071854;28;20029;-86
2021/05/20 05:47:00;;;;;;;6.43;3.88;;;;;;;;;;5072801;28;20092;-86
2021/05/20 05:49:35;;;;;;;5.55;4.72;;;;;;;;;;5068640;28;20025;-86
2021/05/20 05:52:05;;;;;;;8.40;4.07;;;;;;;;;;5054111;28;20388;-88
2021/05/20 05:54:31;;;;;;;4.10;3.40;;;;;;;;;;5067429;28;20028;-88
2021/05/20 05:56:57;;;;;;;4.47;3.65;;;;;;;;;;5063183;28;20021;-87
2021/05/20 05:59:23;;;;;;;4.50;3.78;;;;;;;;;;5060109;28;20075;-85
2021/05/20 06:01:49;;;;;;;9.70;3.80;;;;;;;;;;5062761;28;20110;-86
2021/05/20 06:04:16;;;;;;;6.63;4.15;;;;;;;;;;5064374;28;20128;-85
2021/05/20 06:06:46;;;;;;;6.70;3.70;;;;;;;;;;5064587;28;20039;-87
2021/05/20 06:09:13;;;;;;;5.32;3.88;;;;;;;;;;5062015;28;20035;-87
2021/05/20 06:11:39;;;;;;;6.22;3.63;;;;;;;;;;5064529;28;20036;-89
2021/05/20 06:14:07;;;;;;;5.50;3.60;;;;;;;;;;5060329;28;20108;-87
2021/05/20 06:16:40;;;;;;;8.25;4.43;;;;;;;;;;5062756;28;20029;-86
2021/05/20 06:19:06;;;;;;;5.13;3.80;;;;;;;;;;5062055;28;20028;-86
2021/05/20 06:21:33;;;;;;;3.75;2.90;;;;;;;;;;5062767;28;20068;-86
2021/05/20 06:23:59;;;;;;;7.25;4.15;;;;;;;;;;5061081;28;20032;-86
2021/05/20 06:26:26;;;;;;;4.82;3.50;;;;;;;;;;5063109;28;20094;-86
2021/05/20 06:28:52;;;;;;;8.40;3.58;;;;;;;;;;5059392;28;20051;-85
2021/05/20 06:31:18;;;;;;;4.53;3.20;;;;;;;;;;5062126;28;20507;-85
2021/05/20 06:33:48;;;;;;;5.60;3.05;;;;;;;;;;5063204;28;20033;-86
2021/05/20 06:36:15;;;;;;;5.43;3.22;;;;;;;;;;5059484;28;20020;-85
2021/05/20 06:38:41;;;;;;;6.80;3.75;;;;;;;;;;5061986;28;20108;-87
2021/05/20 06:41:12;;;;;;;7.40;3.28;;;;;;;;;;5061794;28;20110;-87
2021/05/20 06:43:39;;;;;;;4.97;3.45;;;;;;;;;;5060785;28;20044;-85
2021/05/20 06:46:06;;;;;;;6.22;3.03;;;;;;;;;;5060296;28;20534;-85
2021/05/20 06:48:32;;;;;;;7.28;3.00;;;;;;;;;;5060768;28;20031;-85
2021/05/20 06:50:58;;;;;;;4.88;2.55;;;;;;;;;;5060576;28;20481;-86
2021/05/20 06:53:25;;;;;;;3.47;2.38;;;;;;;;;;5062407;28;20021;-85
2021/05/20 06:55:58;;;;;;;7.53;2.58;;;;;;;;;;5060492;28;20024;-85
2021/05/20 07:01:09;;;;;;;3.50;2.10;;;;;;;;;;5059353;28;20040;-84
2021/05/20 07:03:35;;;;;;;4.80;2.00;;;;;;;;;;5066440;28;20353;-85
2021/05/20 07:06:01;;;;;;;5.75;2.13;;;;;;;;;;5053000;28;20112;-85
2021/05/20 07:08:27;;;;;;;4.40;2.30;;;;;;;;;;5056911;28;20052;-84
2021/05/20 07:10:57;;;;;;;4.43;2.33;;;;;;;;;;5064294;28;20079;-83
2021/05/20 07:13:24;;;;;;;4.93;2.22;;;;;;;;;;5061663;28;20021;-83
2021/05/20 07:15:50;;;;;;;4.43;2.13;;;;;;;;;;5066001;28;20024;-83
2021/05/20 07:18:17;;;;;;;6.82;2.38;;;;;;;;;;5051596;28;20112;-83
2021/05/20 07:20:43;;;;;;;4.15;1.58;;;;;;;;;;5064265;28;20033;-84
2021/05/20 07:23:13;;;;;;;3.78;1.60;;;;;;;;;;5052504;28;20116;-83
2021/05/20 07:25:39;;;;;;;4.32;1.58;;;;;;;;;;5055001;28;20041;-83
2021/05/20 07:28:05;;;;;;;4.68;1.88;;;;;;;;;;5076825;28;20036;-83
2021/05/20 07:30:31;;;;;;;4.10;1.70;;;;;;;;;;5072082;28;20040;-83
2021/05/20 07:32:57;;;;;;;4.38;1.38;;;;;;;;;;5062186;28;20487;-83
2021/05/20 07:35:24;;;;;;;2.80;1.52;;;;;;;;;;5063810;28;20025;-83
2021/05/20 07:37:50;;;;;;;4.13;1.52;;;;;;;;;;5065002;28;20024;-87
2021/05/20 07:40:18;;;;;;;3.67;1.63;;;;;;;;;;5060196;28;20460;-86
2021/05/20 07:42:44;;;;;;;2.75;1.48;;;;;;;;;;5066753;28;20028;-85
2021/05/20 07:45:11;;;;;;;4.55;1.30;;;;;;;;;;5064561;28;20079;-85
2021/05/20 07:47:38;;;;;;;3.83;1.50;;;;;;;;;;5072779;28;20034;-85
2021/05/20 07:50:05;;;;;;;5.03;1.42;;;;;;;;;;5064844;28;20058;-85
2021/05/20 07:52:31;;;;;;;5.97;1.20;;;;;;;;;;5062618;28;20036;-85
2021/05/20 07:54:57;;;;;;;6.50;1.40;;;;;;;;;;5052609;28;20489;-85
2021/05/20 07:57:23;;;;;;;4.20;1.65;;;;;;;;;;5052828;28;20071;-83
2021/05/20 07:59:50;;;;;;;4.40;2.22;;;;;;;;;;5065657;28;20021;-84
2021/05/20 08:04:46;;;;;;;3.35;1.30;;;;;;;;;;5068770;28;20055;-84
2021/05/20 08:07:24;;;;;;;4.53;1.98;;;;;;;;;;5070456;28;20488;-84
2021/05/20 08:12:36;;;;;;;1.90;1.20;;;;;;;;;;5069365;28;20048;-84
2021/05/20 08:15:02;;;;;;;5.63;1.30;;;;;;;;;;5060784;28;20032;-84
2021/05/20 08:17:28;;;;;;;1.55;1.10;;;;;;;;;;5084172;28;20024;-84
2021/05/20 08:19:54;;;;;;;4.55;0.80;;;;;;;;;;5065215;28;20048;-83
2021/05/20 08:22:20;;;;;;;3.00;0.82;;;;;;;;;;5054437;28;20457;-84
2021/05/20 08:24:46;;;;;;;1.40;1.02;;;;;;;;;;5052269;28;20025;-84
2021/05/20 08:27:12;;;;;;;5.00;1.42;;;;;;;;;;5049482;28;20069;-87
2021/05/20 08:29:39;;;;;;;4.72;1.20;;;;;;;;;;5017344;28;20037;-83
2021/05/20 08:32:05;;;;;;;2.22;1.15;;;;;;;;;;5031544;28;20025;-87
2021/05/20 08:34:31;;;;;;;1.50;0.90;;;;;;;;;;5037253;28;20030;-86
2021/05/20 08:36:57;;;;;;;2.65;1.35;;;;;;;;;;5026859;28;20028;-86
2021/05/20 08:39:23;;;;;;;5.35;1.10;;;;;;;;;;5030543;28;20461;-87
2021/05/20 08:41:50;;;;;;;6.05;1.08;;;;;;;;;;5030414;28;20049;-87
2021/05/20 08:44:17;;;;;;;1.23;1.00;;;;;;;;;;5035474;28;20075;-86
2021/05/20 08:46:44;;;;;;;3.20;1.58;;;;;;;;;;5029586;28;20025;-86
2021/05/20 08:49:14;;;;;;;1.77;0.93;;;;;;;;;;5036525;28;20486;-87
2021/05/20 08:51:40;;;;;;;8.00;1.08;;;;;;;;;;5019722;28;20025;-86
2021/05/20 08:54:07;;;;;;;2.67;1.10;;;;;;;;;;5019199;28;20044;-86
2021/05/20 08:56:32;;;;;;;1.88;0.93;;;;;;;;;;5026204;28;20519;-87
2021/05/20 08:58:59;;;;;;;2.10;0.80;;;;;;;;;;5054946;28;20064;-86
2021/05/20 09:01:43;;;;;;;3.20;0.95;;;;;;;;;;5028262;28;20112;-87
2021/05/20 09:04:09;;;;;;;2.20;0.90;;;;;;;;;;5028776;28;20508;-87
2021/05/20 09:06:38;;;;;;;3.00;1.20;;;;;;;;;;5040624;28;20030;-87
2021/05/20 09:09:08;;;;;;;1.58;1.00;;;;;;;;;;5029272;28;20025;-87
2021/05/20 09:11:34;;;;;;;3.08;0.80;;;;;;;;;;5023415;28;20437;-87
2021/05/20 09:14:04;;;;;;;1.33;0.80;;;;;;;;;;5032666;28;20473;-86
2021/05/20 09:16:30;;;;;;;4.53;0.75;;;;;;;;;;5034875;28;20029;-87
2021/05/20 09:18:59;;;;;;;1.65;1.15;;;;;;;;;;5034774;28;20087;-88
2021/05/20 09:21:26;;;;;;;2.08;1.05;;;;;;;;;;5025616;28;20021;-87
2021/05/20 09:23:52;;;;;;;3.40;1.27;;;;;;;;;;5035534;28;20029;-89
2021/05/20 09:26:18;;;;;;;1.52;0.93;;;;;;;;;;5033231;28;20025;-88
2021/05/20 09:28:47;;;;;;;2.67;1.00;;;;;;;;;;5050806;28;20102;-87
2021/05/20 09:31:15;;;;;;;1.77;1.15;;;;;;;;;;5069646;28;20113;-87
2021/05/20 09:33:51;;;;;;;1.48;1.10;;;;;;;;;;5074997;28;20033;-86
2021/05/20 09:36:24;;;;;;;1.67;1.10;;;;;;;;;;5070965;28;20025;-88
2021/05/20 09:38:58;;;;;;;1.95;1.20;;;;;;;;;;5070946;28;20531;-87
2021/05/20 09:41:24;;;;;;;4.88;1.17;;;;;;;;;;5078549;28;20029;-88
2021/05/20 09:43:50;;;;;;;1.20;0.70;;;;;;;;;;5071362;28;20499;-87
2021/05/20 09:46:18;;;;;;;2.45;1.30;;;;;;;;;;5061001;28;20029;-87
2021/05/20 09:48:45;;;;;;;2.70;1.08;;;;;;;;;;5074848;28;20028;-88
2021/05/20 09:51:24;;;;;;;2.05;1.10;;;;;;;;;;5069198;28;20094;-88
2021/05/20 09:53:52;;;;;;;1.10;0.77;;;;;;;;;;5076780;28;20494;-89
2021/05/20 09:56:41;;;;;;;2.05;1.20;;;;;;;;;;5076486;28;20108;-88
2021/05/20 09:59:15;;;;;;;3.00;1.00;;;;;;;;;;5059462;28;20024;-88
2021/05/20 10:01:42;;;;;;;2.33;1.10;;;;;;;;;;5065749;28;20035;-87
2021/05/20 10:04:09;;;;;;;4.53;1.00;;;;;;;;;;5072806;28;20040;-87
2021/05/20 10:06:42;;;;;;;1.33;0.93;;;;;;;;;;5054755;28;20025;-87
2021/05/20 10:09:13;;;;;;;1.77;0.82;;;;;;;;;;5073444;28;20016;-88
2021/05/20 10:11:39;;;;;;;1.55;0.80;;;;;;;;;;5067743;28;20021;-87
2021/05/20 10:14:05;;;;;;;5.90;1.17;;;;;;;;;;5055728;28;20111;-87
2021/05/20 10:16:32;;;;;;;3.15;0.90;;;;;;;;;;5057685;28;20028;-88
2021/05/20 10:18:58;;;;;;;1.40;1.00;;;;;;;;;;5041362;28;20035;-87
2021/05/20 10:21:25;;;;;;;2.45;0.90;;;;;;;;;;5060945;28;20869;-86
2021/05/20 10:23:51;;;;;;;1.83;1.25;;;;;;;;;;5064594;28;20025;-87
2021/05/20 10:26:17;;;;;;;1.42;0.80;;;;;;;;;;5070521;28;20064;-86
2021/05/20 10:28:44;;;;;;;0.77;0.70;;;;;;;;;;5067119;28;20151;-87
2021/05/20 10:31:10;;;;;;;2.35;1.00;;;;;;;;;;5054853;28;20028;-87
2021/05/20 10:33:36;;;;;;;2.20;0.90;;;;;;;;;;5062089;28;20056;-88
2021/05/20 10:36:03;;;;;;;2.95;1.00;;;;;;;;;;5073435;28;20051;-87
2021/05/20 10:38:32;;;;;;;3.75;1.02;;;;;;;;;;5064175;28;20025;-87
2021/05/20 10:41:11;;;;;;;1.77;1.02;;;;;;;;;;5054512;28;20025;-87
2021/05/20 10:43:38;;;;;;;2.65;0.90;;;;;;;;;;5069720;28;20017;-86
2021/05/20 10:46:05;;;;;;;2.25;0.88;;;;;;;;;;5056341;28;20040;-86
2021/05/20 10:48:31;;;;;;;8.02;0.70;;;;;;;;;;5064235;28;20060;-88
2021/05/20 10:50:59;;;;;;;1.02;0.68;;;;;;;;;;5075064;28;20088;-87
2021/05/20 10:53:40;;;;;;;1.83;0.88;;;;;;;;;;5072649;28;20018;-87
2021/05/20 10:56:10;;;;;;;0.77;0.52;;;;;;;;;;5057653;28;20017;-87
2021/05/20 10:58:37;;;;;;;1.85;0.82;;;;;;;;;;5064584;28;20053;-87
2021/05/20 11:01:04;;;;;;;2.60;1.10;;;;;;;;;;5053843;28;20025;-88
2021/05/20 11:03:48;;;;;;;1.45;1.02;;;;;;;;;;5070777;28;20503;-87
2021/05/20 11:06:15;;;;;;;2.40;1.00;;;;;;;;;;5073990;28;20480;-86
2021/05/20 11:08:47;;;;;;;2.65;0.75;;;;;;;;;;5073515;28;20025;-87
2021/05/20 11:11:22;;;;;;;0.75;0.70;;;;;;;;;;5068172;28;20047;-87
2021/05/20 11:13:48;;;;;;;1.63;0.70;;;;;;;;;;5054127;28;20499;-87
2021/05/20 11:16:15;;;;;;;0.60;0.60;;;;;;;;;;5066823;28;20036;-87
2021/05/20 11:18:41;;;;;;;4.03;0.90;;;;;;;;;;5069853;28;20046;-88
2021/05/20 11:21:08;;;;;;;4.82;0.90;;;;;;;;;;5064455;28;20036;-89
2021/05/20 11:23:35;;;;;;;3.67;0.80;;;;;;;;;;5071797;28;20020;-88
2021/05/20 11:26:13;;;;;;;1.73;0.70;;;;;;;;;;5061233;28;20027;-88
2021/05/20 11:28:40;;;;;;;1.80;0.70;;;;;;;;;;5057526;28;20032;-88
2021/05/20 11:31:06;;;;;;;2.03;0.68;;;;;;;;;;5073430;28;20052;-87
2021/05/20 11:33:49;;;;;;;2.35;0.68;;;;;;;;;;5069512;28;20032;-87
2021/05/20 11:36:15;;;;;;;3.03;0.70;;;;;;;;;;5054148;28;20477;-87
2021/05/20 11:38:54;;;;;;;3.33;0.70;;;;;;;;;;5053300;28;20032;-86
2021/05/20 11:41:21;;;;;;;1.45;0.70;;;;;;;;;;5067391;28;20017;-87
2021/05/20 11:43:47;;;;;;;1.42;0.57;;;;;;;;;;5061978;28;20021;-87
2021/05/20 11:46:20;;;;;;;0.82;0.63;;;;;;;;;;5055844;28;20056;-84
2021/05/20 11:48:55;;;;;;;1.55;0.80;;;;;;;;;;5062418;28;20154;-85
2021/05/20 11:51:40;;;;;;;0.57;0.30;;;;;;;;;;5056015;28;20052;-85
2021/05/20 11:54:13;;;;;;;1.60;0.65;;;;;;;;;;5066881;28;20021;-86
2021/05/20 11:56:40;;;;;;;1.10;0.60;;;;;;;;;;5054387;28;20079;-86
2021/05/20 11:59:06;;;;;;;2.83;0.70;;;;;;;;;;5063838;28;20016;-84
2021/05/20 12:01:33;;;;;;;1.88;0.60;;;;;;;;;;5067765;28;20361;-85
2021/05/20 12:04:00;;;;;;;0.80;0.50;;;;;;;;;;5060792;28;20427;-85
2021/05/20 12:06:26;;;;;;;2.53;0.60;;;;;;;;;;5056318;28;20162;-84
2021/05/20 12:09:05;;;;;;;2.05;0.60;;;;;;;;;;5063713;28;20029;-84
2021/05/20 12:11:31;;;;;;;3.50;0.40;;;;;;;;;;5067524;28;20534;-85
2021/05/20 12:13:57;;;;;;;1.08;0.55;;;;;;;;;;5057331;28;20029;-85
2021/05/20 12:16:27;;;;;;;4.22;0.80;;;;;;;;;;5066095;28;20063;-85
2021/05/20 12:18:53;;;;;;;2.80;0.40;;;;;;;;;;5059239;28;20028;-85
2021/05/20 12:21:19;;;;;;;2.10;0.68;;;;;;;;;;5064015;28;20020;-85
2021/05/20 12:23:58;;;;;;;0.82;0.40;;;;;;;;;;5068270;28;20028;-85
2021/05/20 12:26:26;;;;;;;0.90;0.40;;;;;;;;;;5071890;28;20636;-85
2021/05/20 12:28:52;;;;;;;1.00;0.57;;;;;;;;;;5066299;28;20037;-83
2021/05/20 12:31:19;;;;;;;1.55;0.77;;;;;;;;;;5075198;28;20452;-82
2021/05/20 12:33:46;;;;;;;1.40;0.63;;;;;;;;;;5067467;28;20024;-82
2021/05/20 12:36:32;;;;;;;0.77;0.50;;;;;;;;;;5073974;28;20020;-82
2021/05/20 12:38:58;;;;;;;0.95;0.57;;;;;;;;;;5071205;28;20025;-83
2021/05/20 12:41:37;;;;;;;0.82;0.50;;;;;;;;;;5069445;28;20020;-83
2021/05/20 12:44:16;;;;;;;46.25;11.15;;;;;;;;;;5075477;28;20032;-82
2021/05/20 12:46:42;;;;;;;1.33;0.50;;;;;;;;;;5064650;28;20025;-83
2021/05/20 12:49:08;;;;;;;22.20;7.47;;;;;;;;;;5066250;28;20039;-83
2021/05/20 12:51:34;;;;;;;13.38;5.38;;;;;;;;;;5092310;28;20039;-83
2021/05/20 12:54:02;;;;;;;5.97;2.38;;;;;;;;;;5075885;28;20036;-83
2021/05/20 12:56:28;;;;;;;0.95;0.70;;;;;;;;;;5064975;28;20057;-84
2021/05/20 12:58:56;;;;;;;7.47;1.85;;;;;;;;;;5071727;28;20039;-83
2021/05/20 13:01:23;;;;;;;6.20;2.10;;;;;;;;;;5075485;28;20050;-83
2021/05/20 13:03:51;;;;;;;3.97;0.85;;;;;;;;;;5078095;28;20059;-83
2021/05/20 13:06:23;;;;;;;0.45;0.30;;;;;;;;;;5068051;28;20033;-83
2021/05/20 13:08:49;;;;;;;3.95;1.02;;;;;;;;;;5062296;28;20028;-84
2021/05/20 13:11:23;;;;;;;0.75;0.40;;;;;;;;;;5069460;28;20039;-83
2021/05/20 13:13:52;;;;;;;0.60;0.30;;;;;;;;;;5062829;28;20039;-83
2021/05/20 13:19:31;;;;;;;2.40;0.25;;;;;;;;;;5069769;28;20029;-84
2021/05/20 13:22:11;;;;;;;0.82;0.20;;;;;;;;;;5074546;28;20032;-85
2021/05/20 13:24:48;;;;;;;0.93;0.20;;;;;;;;;;5068029;28;20082;-84
2021/05/20 13:27:14;;;;;;;0.47;0.22;;;;;;;;;;5059952;28;20080;-84
2021/05/20 13:29:44;;;;;;;1.38;0.40;;;;;;;;;;5048909;28;20388;-83
2021/05/20 13:34:54;;;;;;;0.20;0.20;;;;;;;;;;5035203;28;20037;-84
2021/05/20 13:37:20;;;;;;;7.20;0.47;;;;;;;;;;5036148;28;20022;-84
2021/05/20 13:39:47;;;;;;;0.93;0.30;;;;;;;;;;5026760;28;20357;-85
2021/05/20 13:42:13;;;;;;;0.95;0.20;;;;;;;;;;5030404;28;20080;-85
2021/05/20 13:44:48;;;;;;;1.15;0.30;;;;;;;;;;5052391;28;20033;-85
2021/05/20 13:47:15;;;;;;;0.88;0.20;;;;;;;;;;5030188;28;20033;-85
2021/05/20 13:49:43;;;;;;;0.88;0.30;;;;;;;;;;5035720;28;20477;-85
2021/05/20 13:52:13;;;;;;;2.13;0.43;;;;;;;;;;5018191;28;20108;-85
2021/05/20 13:54:39;;;;;;;2.35;0.50;;;;;;;;;;5019575;28;20144;-86
2021/05/20 13:57:05;;;;;;;0.93;0.20;;;;;;;;;;5029940;28;20025;-85
2021/05/20 13:59:31;;;;;;;2.83;0.30;;;;;;;;;;5049250;28;20090;-85
2021/05/20 14:01:59;;;;;;;0.57;0.10;;;;;;;;;;5025595;28;20017;-85
2021/05/20 14:04:35;;;;;;;0.00;0.00;;;;;;;;;;5034195;28;20021;-86
2021/05/20 14:07:02;;;;;;;0.70;0.17;;;;;;;;;;5027408;28;20068;-87
2021/05/20 14:09:28;;;;;;;0.80;0.25;;;;;;;;;;5048300;28;20021;-86
2021/05/20 14:11:54;;;;;;;1.63;0.32;;;;;;;;;;5028565;28;20029;-85
2021/05/20 14:14:20;;;;;;;1.08;0.10;;;;;;;;;;5026050;28;20033;-85
2021/05/20 14:16:46;;;;;;;0.70;0.40;;;;;;;;;;5017356;28;20504;-85
2021/05/20 14:19:12;;;;;;;1.98;0.20;;;;;;;;;;5052757;28;20033;-85
2021/05/20 14:21:38;;;;;;;1.13;0.30;;;;;;;;;;5050146;28;20432;-86
2021/05/20 14:24:04;;;;;;;0.50;0.30;;;;;;;;;;5018201;28;20465;-85
2021/05/20 14:26:30;;;;;;;0.88;0.40;;;;;;;;;;5029110;28;20024;-85
2021/05/20 14:28:56;;;;;;;0.90;0.30;;;;;;;;;;5049215;28;20033;-83
2021/05/20 14:31:22;;;;;;;2.72;0.20;;;;;;;;;;5034786;28;20032;-83
2021/05/20 14:33:48;;;;;;;1.13;0.20;;;;;;;;;;5031017;28;20484;-84
2021/05/20 14:36:14;;;;;;;0.40;0.20;;;;;;;;;;5027431;28;20060;-84
2021/05/20 14:38:40;;;;;;;0.40;0.20;;;;;;;;;;5034375;28;20037;-84
2021/05/20 14:41:06;;;;;;;1.17;0.40;;;;;;;;;;5036968;28;20487;-86
2021/05/20 14:43:32;;;;;;;2.58;0.40;;;;;;;;;;5034409;28;20029;-85
2021/05/20 14:45:58;;;;;;;0.95;0.28;;;;;;;;;;5035225;28;20033;-86
2021/05/20 14:48:24;;;;;;;4.45;0.70;;;;;;;;;;5034562;28;20029;-85
2021/05/20 14:53:33;;;;;;;2.00;0.30;;;;;;;;;;5047782;28;20051;-84
2021/05/20 14:56:08;;;;;;;1.25;0.40;;;;;;;;;;5033847;28;20036;-84
2021/05/20 15:05:02;;;;;;;0.85;0.30;;;;;;;;;;5047722;28;20121;-85
2021/05/20 15:06:55;;;;;;;2.80;0.40;;;;;;;;;;5036797;28;20492;-85
2021/05/20 15:09:35;;;;;;;1.00;0.20;;;;;;;;;;5034261;28;20040;-84